createdAt,value
2023-06-10T00:00:02.674Z,74.17
2023-06-10T00:03:00.800Z,74.39
2023-06-10T00:05:31.372Z,74.03
2023-06-10T00:07:59.458Z,74.10
2023-06-10T00:10:27.830Z,74.11
2023-06-10T00:12:56.432Z,74.01
2023-06-10T00:15:24.854Z,73.69
2023-06-10T00:17:56.356Z,73.57
2023-06-10T00:20:24.953Z,73.54
2023-06-10T00:22:53.358Z,73.55
2023-06-10T00:25:21.647Z,73.33
2023-06-10T00:27:49.694Z,73.27
2023-06-10T00:30:17.898Z,73.13
2023-06-10T00:32:46.148Z,73.45
2023-06-10T00:35:14.245Z,73.17
2023-06-10T00:37:42.370Z,73.10
2023-06-10T00:40:11.377Z,73.32
2023-06-10T00:42:39.438Z,73.50
2023-06-10T00:45:08.726Z,73.67
2023-06-10T00:47:38.219Z,73.70
2023-06-10T00:50:07.739Z,73.68
2023-06-10T00:52:35.750Z,73.79
2023-06-10T00:55:04.158Z,74.52
2023-06-10T00:57:33.859Z,74.57
2023-06-10T01:00:01.866Z,74.97
2023-06-10T01:02:30.159Z,74.67
2023-06-10T01:05:02.864Z,74.45
2023-06-10T01:07:54.659Z,74.67
2023-06-10T01:10:34.500Z,74.58
2023-06-10T01:13:12.943Z,74.37
2023-06-10T01:15:41.210Z,74.57
2023-06-10T01:18:11.077Z,74.71
2023-06-10T01:20:41.525Z,74.66
2023-06-10T01:23:11.248Z,75.28
2023-06-10T01:25:45.604Z,75.26
2023-06-10T01:28:37.941Z,75.14
2023-06-10T01:31:15.299Z,74.97
2023-06-10T01:33:45.019Z,74.68
2023-06-10T01:36:13.564Z,74.55
2023-06-10T01:38:42.694Z,74.37
2023-06-10T01:41:11.858Z,74.07
2023-06-10T01:43:39.935Z,74.60
2023-06-10T01:46:08.854Z,74.41
2023-06-10T01:48:36.970Z,74.43
2023-06-10T01:51:05.526Z,74.48
2023-06-10T01:53:33.510Z,74.39
2023-06-10T01:56:01.519Z,74.49
2023-06-10T01:58:31.755Z,74.78
2023-06-10T02:00:59.812Z,74.80
2023-06-10T02:03:28.035Z,74.97
2023-06-10T02:05:56.523Z,74.72
2023-06-10T02:08:24.568Z,74.51
2023-06-10T02:10:52.517Z,74.20
2023-06-10T02:13:20.745Z,73.82
2023-06-10T02:15:56.244Z,73.97
2023-06-10T02:18:24.698Z,74.33
2023-06-10T02:20:52.748Z,74.22
2023-06-10T02:23:21.025Z,74.12
2023-06-10T02:25:49.554Z,73.52
2023-06-10T02:28:17.765Z,73.28
2023-06-10T02:30:48.063Z,73.16
2023-06-10T02:33:16.410Z,72.98
2023-06-10T02:35:45.162Z,72.86
2023-06-10T02:38:13.310Z,72.91
2023-06-10T02:40:41.449Z,72.96
2023-06-10T02:43:10.371Z,73.20
2023-06-10T02:45:38.849Z,73.14
2023-06-10T02:48:08.221Z,73.63
2023-06-10T02:50:36.379Z,73.94
2023-06-10T02:53:11.040Z,74.07
2023-06-10T02:55:40.818Z,74.45
2023-06-10T02:58:11.309Z,74.97
2023-06-10T03:00:42.265Z,74.62
2023-06-10T03:03:11.855Z,74.23
2023-06-10T03:05:46.650Z,73.96
2023-06-10T03:08:15.515Z,73.83
2023-06-10T03:10:43.891Z,73.13
2023-06-10T03:13:13.468Z,72.68
2023-06-10T03:15:42.175Z,72.43
2023-06-10T03:18:13.106Z,72.20
2023-06-10T03:20:41.119Z,72.13
2023-06-10T03:23:10.893Z,71.93
2023-06-10T03:25:39.199Z,71.66
2023-06-10T03:28:07.634Z,71.39
2023-06-10T03:30:36.448Z,71.13
2023-06-10T03:33:04.757Z,70.95
2023-06-10T03:35:33.673Z,70.13
2023-06-10T03:38:02.062Z,69.86
2023-06-10T03:40:32.551Z,68.92
2023-06-10T03:43:01.869Z,68.61
2023-06-10T03:45:30.692Z,68.03
2023-06-10T03:47:58.966Z,67.23
2023-06-10T03:50:32.470Z,66.64
2023-06-10T03:53:00.664Z,66.08
2023-06-10T03:55:29.096Z,65.42
2023-06-10T03:57:58.134Z,64.44
2023-06-10T04:00:26.387Z,63.69
2023-06-10T04:02:54.628Z,62.66
2023-06-10T04:05:31.503Z,62.21
2023-06-10T04:08:00.690Z,61.59
2023-06-10T04:10:28.972Z,60.30
2023-06-10T04:12:57.099Z,58.95
2023-06-10T04:15:30.736Z,58.49
2023-06-10T04:17:59.446Z,57.18
2023-06-10T04:20:28.643Z,56.46
2023-06-10T04:22:56.773Z,55.41
2023-06-10T04:25:25.625Z,53.71
2023-06-10T04:27:53.681Z,52.59
2023-06-10T04:30:21.810Z,49.89
2023-06-10T04:32:50.014Z,49.23
2023-06-10T04:35:18.936Z,48.82
2023-06-10T04:37:47.640Z,50.42
2023-06-10T04:40:17.167Z,50.16
2023-06-10T04:42:45.814Z,50.53
2023-06-10T04:45:14.754Z,50.89
2023-06-10T04:47:43.263Z,51.34
2023-06-10T04:50:13.255Z,51.74
2023-06-10T04:52:42.786Z,51.47
2023-06-10T04:55:12.399Z,51.83
2023-06-10T04:57:40.594Z,52.11
2023-06-10T05:00:09.660Z,52.37
2023-06-10T05:02:37.648Z,52.55
2023-06-10T05:05:06.019Z,52.41
2023-06-10T05:07:34.106Z,52.22
2023-06-10T05:10:02.734Z,52.37
2023-06-10T05:12:30.929Z,52.37
2023-06-10T05:14:58.964Z,52.61
2023-06-10T05:17:27.224Z,52.76
2023-06-10T05:19:55.984Z,52.57
2023-06-10T05:22:25.986Z,52.76
2023-06-10T05:24:54.325Z,52.45
2023-06-10T05:27:23.338Z,52.12
2023-06-10T05:29:52.775Z,52.48
2023-06-10T05:32:21.053Z,52.54
2023-06-10T05:34:49.163Z,52.25
2023-06-10T05:37:17.290Z,52.22
2023-06-10T05:39:45.707Z,52.39
2023-06-10T05:42:13.846Z,52.43
2023-06-10T05:44:41.842Z,52.36
2023-06-10T05:47:09.849Z,52.36
2023-06-10T05:49:37.994Z,52.37
2023-06-10T05:52:06.556Z,52.39
2023-06-10T05:54:34.581Z,52.08
2023-06-10T05:57:03.042Z,52.03
2023-06-10T05:59:31.099Z,52.28
2023-06-10T06:01:59.888Z,52.68
2023-06-10T06:04:28.103Z,52.78
2023-06-10T06:06:56.359Z,52.98
2023-06-10T06:09:24.523Z,52.77
2023-06-10T06:11:52.728Z,52.24
2023-06-10T06:14:20.915Z,51.84
2023-06-10T06:16:49.051Z,51.25
2023-06-10T06:19:17.274Z,50.96
2023-06-10T06:21:45.301Z,49.90
2023-06-10T06:24:13.494Z,50.10
2023-06-10T06:26:41.567Z,49.67
2023-06-10T06:29:09.569Z,49.39
2023-06-10T06:31:37.938Z,48.83
2023-06-10T06:34:06.018Z,48.05
2023-06-10T06:36:33.984Z,46.13
2023-06-10T06:39:02.082Z,42.88
2023-06-10T06:41:30.645Z,40.32
2023-06-10T06:43:58.717Z,39.24
2023-06-10T06:46:32.062Z,39.46
2023-06-10T06:49:00.241Z,38.56
2023-06-10T06:51:28.398Z,38.91
2023-06-10T06:54:00.071Z,38.25
2023-06-10T06:56:29.434Z,37.23
2023-06-10T06:58:58.373Z,36.73
2023-06-10T07:01:26.681Z,37.51
2023-06-10T07:03:54.786Z,39.07
2023-06-10T07:06:23.178Z,40.45
2023-06-10T07:08:52.129Z,41.56
2023-06-10T07:11:20.190Z,42.22
2023-06-10T07:13:48.270Z,42.09
2023-06-10T07:16:16.319Z,40.99
2023-06-10T07:18:44.539Z,40.53
2023-06-10T07:21:12.903Z,39.49
2023-06-10T07:23:44.370Z,39.08
2023-06-10T07:26:14.464Z,39.89
2023-06-10T07:28:42.753Z,39.49
2023-06-10T07:31:11.080Z,38.38
2023-06-10T07:33:40.429Z,38.06
2023-06-10T07:36:08.594Z,37.78
2023-06-10T07:38:37.016Z,37.45
2023-06-10T07:41:05.044Z,36.94
2023-06-10T07:43:33.018Z,36.72
2023-06-10T07:46:01.292Z,37.10
2023-06-10T07:48:29.291Z,36.74
2023-06-10T07:50:57.335Z,36.38
2023-06-10T07:53:25.398Z,36.85
2023-06-10T07:55:54.606Z,37.60
2023-06-10T07:58:23.521Z,36.42
2023-06-10T08:00:51.572Z,36.23
2023-06-10T08:03:19.848Z,35.71
2023-06-10T08:05:48.430Z,35.78
2023-06-10T08:08:16.520Z,35.99
2023-06-10T08:10:44.605Z,36.18
2023-06-10T08:13:12.715Z,35.90
2023-06-10T08:15:40.924Z,36.18
2023-06-10T08:18:08.992Z,35.95
2023-06-10T08:20:37.185Z,35.79
2023-06-10T08:23:05.215Z,35.63
2023-06-10T08:25:33.307Z,35.65
2023-06-10T08:28:01.301Z,35.83
2023-06-10T08:30:29.435Z,35.96
2023-06-10T08:32:58.038Z,36.05
2023-06-10T08:35:26.117Z,35.81
2023-06-10T08:37:54.112Z,35.55
2023-06-10T08:40:22.370Z,34.36
2023-06-10T08:42:53.929Z,33.62
2023-06-10T08:45:21.995Z,33.84
2023-06-10T08:47:53.140Z,34.15
2023-06-10T08:50:23.298Z,34.35
2023-06-10T08:52:55.008Z,33.95
2023-06-10T08:55:29.761Z,33.99
2023-06-10T08:58:02.726Z,33.62
2023-06-10T09:00:32.761Z,34.48
2023-06-10T09:03:04.727Z,35.06
2023-06-10T09:05:37.879Z,35.02
2023-06-10T09:08:07.494Z,34.02
2023-06-10T09:10:35.546Z,34.62
2023-06-10T09:13:03.716Z,34.73
2023-06-10T09:15:31.911Z,33.79
2023-06-10T09:18:01.157Z,34.02
2023-06-10T09:20:29.188Z,34.14
2023-06-10T09:22:57.189Z,34.10
2023-06-10T09:25:37.179Z,34.63
2023-06-10T09:28:05.454Z,33.87
2023-06-10T09:30:35.247Z,33.85
2023-06-10T09:33:04.897Z,33.80
2023-06-10T09:35:33.725Z,33.35
2023-06-10T09:38:03.429Z,32.64
2023-06-10T09:40:31.585Z,32.88
2023-06-10T09:43:00.698Z,33.22
2023-06-10T09:45:34.764Z,32.21
2023-06-10T09:48:03.018Z,32.19
2023-06-10T09:50:34.477Z,32.05
2023-06-10T09:53:05.453Z,31.31
2023-06-10T09:55:34.412Z,31.19
2023-06-10T09:58:02.454Z,31.48
2023-06-10T10:00:35.915Z,30.57
2023-06-10T10:03:04.615Z,30.33
2023-06-10T10:05:32.893Z,30.51
2023-06-10T10:08:01.104Z,29.39
2023-06-10T10:10:29.482Z,28.50
2023-06-10T10:12:57.983Z,28.19
2023-06-10T10:15:29.915Z,27.87
2023-06-10T10:18:18.699Z,28.40
2023-06-10T10:20:51.572Z,28.38
2023-06-10T10:23:23.277Z,28.30
2023-06-10T10:25:53.465Z,27.34
2023-06-10T10:28:21.586Z,27.78
2023-06-10T10:30:54.134Z,27.98
2023-06-10T10:33:48.702Z,27.78
2023-06-10T10:36:17.719Z,28.82
2023-06-10T10:38:46.507Z,28.55
2023-06-10T10:41:14.585Z,29.32
2023-06-10T10:43:43.189Z,29.71
2023-06-10T10:46:16.077Z,30.11
2023-06-10T10:48:44.302Z,29.10
2023-06-10T10:51:12.511Z,29.25
2023-06-10T10:53:40.980Z,29.52
2023-06-10T10:56:14.712Z,29.43
2023-06-10T10:58:43.044Z,29.57
2023-06-10T11:01:13.283Z,28.98
2023-06-10T11:03:46.599Z,29.55
2023-06-10T11:06:17.542Z,29.08
2023-06-10T11:08:45.734Z,28.71
2023-06-10T11:11:22.209Z,28.69
2023-06-10T11:14:02.853Z,28.35
2023-06-10T11:16:31.508Z,27.99
2023-06-10T11:18:59.779Z,27.80
2023-06-10T11:21:29.299Z,27.92
2023-06-10T11:23:59.465Z,26.77
2023-06-10T11:26:33.930Z,26.31
2023-06-10T11:29:04.437Z,25.88
2023-06-10T11:31:33.900Z,25.50
2023-06-10T11:34:07.598Z,25.24
2023-06-10T11:36:41.763Z,25.42
2023-06-10T11:39:10.237Z,24.93
2023-06-10T11:41:39.778Z,25.16
2023-06-10T11:44:17.503Z,25.33
2023-06-10T11:46:51.409Z,24.43
2023-06-10T11:49:19.476Z,22.59
2023-06-10T11:51:51.445Z,22.58
2023-06-10T11:54:19.865Z,22.41
2023-06-10T11:56:48.871Z,23.25
2023-06-10T11:59:16.969Z,23.18
2023-06-10T12:01:45.914Z,23.35
2023-06-10T12:04:16.769Z,23.38
2023-06-10T12:06:49.928Z,23.01
2023-06-10T12:09:28.000Z,22.35
2023-06-10T12:12:00.867Z,20.86
2023-06-10T12:14:55.461Z,19.97
2023-06-10T12:17:25.540Z,20.18
2023-06-10T12:19:53.750Z,20.67
2023-06-10T12:22:22.596Z,20.76
2023-06-10T12:25:00.940Z,20.00
2023-06-10T12:27:30.894Z,20.55
2023-06-10T12:30:03.953Z,20.41
2023-06-10T12:32:45.813Z,19.37
2023-06-10T12:35:18.994Z,19.50
2023-06-10T12:37:58.486Z,19.68
2023-06-10T12:40:33.593Z,20.21
2023-06-10T12:43:01.949Z,20.19
2023-06-10T12:45:39.169Z,20.43
2023-06-10T12:48:10.248Z,21.32
2023-06-10T12:50:40.883Z,22.08
2023-06-10T12:53:09.635Z,22.29
2023-06-10T12:55:38.089Z,22.39
2023-06-10T12:58:06.504Z,22.64
2023-06-10T13:00:36.364Z,22.77
2023-06-10T13:03:07.301Z,22.75
2023-06-10T13:05:40.218Z,22.70
2023-06-10T13:08:11.476Z,22.44
2023-06-10T13:10:40.139Z,22.75
2023-06-10T13:13:10.986Z,23.07
2023-06-10T13:15:42.760Z,23.76
2023-06-10T13:18:12.097Z,23.62
2023-06-10T13:20:40.589Z,23.64
2023-06-10T13:23:08.569Z,23.35
2023-06-10T13:25:36.652Z,22.50
2023-06-10T13:28:05.051Z,22.06
2023-06-10T13:30:33.535Z,22.57
2023-06-10T13:33:02.156Z,22.14
2023-06-10T13:35:30.586Z,21.45
2023-06-10T13:37:58.610Z,21.69
2023-06-10T13:40:26.637Z,22.23
2023-06-10T13:42:55.531Z,21.76
2023-06-10T13:45:24.103Z,21.34
2023-06-10T13:47:52.465Z,20.84
2023-06-10T13:50:20.974Z,20.73
2023-06-10T13:52:49.024Z,20.99
2023-06-10T13:55:18.752Z,22.16
2023-06-10T13:57:46.845Z,21.59
2023-06-10T14:00:15.203Z,21.65
2023-06-10T14:02:43.885Z,21.44
2023-06-10T14:05:12.139Z,21.10
2023-06-10T14:07:41.879Z,21.18
2023-06-10T14:10:10.667Z,21.29
2023-06-10T14:12:38.968Z,21.74
2023-06-10T14:15:07.899Z,22.07
2023-06-10T14:17:36.352Z,22.29
2023-06-10T14:20:05.503Z,21.29
2023-06-10T14:22:33.705Z,21.10
2023-06-10T14:25:01.749Z,21.81
2023-06-10T14:27:29.855Z,21.52
2023-06-10T14:29:57.926Z,21.46
2023-06-10T14:32:26.054Z,21.06
2023-06-10T14:34:54.150Z,21.10
2023-06-10T14:37:22.258Z,21.48
2023-06-10T14:39:50.348Z,21.15
2023-06-10T14:42:18.422Z,20.77
2023-06-10T14:44:46.553Z,21.42
2023-06-10T14:47:14.556Z,21.75
2023-06-10T14:49:43.290Z,22.06
2023-06-10T14:52:11.373Z,22.13
2023-06-10T14:54:39.345Z,21.64
2023-06-10T14:57:08.308Z,21.44
2023-06-10T14:59:36.448Z,22.00
2023-06-10T15:02:04.695Z,21.22
2023-06-10T15:04:33.096Z,21.39
2023-06-10T15:07:01.163Z,22.04
2023-06-10T15:09:29.198Z,22.36
2023-06-10T15:11:57.445Z,21.93
2023-06-10T15:14:25.408Z,22.01
2023-06-10T15:16:53.834Z,21.84
2023-06-10T15:19:21.902Z,21.57
2023-06-10T15:21:50.027Z,21.72
2023-06-10T15:24:18.225Z,21.68
2023-06-10T15:26:46.492Z,21.39
2023-06-10T15:29:15.044Z,21.46
2023-06-10T15:31:43.013Z,21.12
2023-06-10T15:34:11.029Z,21.58
2023-06-10T15:36:39.046Z,21.92
2023-06-10T15:39:09.981Z,22.29
2023-06-10T15:41:38.035Z,22.84
2023-06-10T15:44:06.144Z,22.74
2023-06-10T15:46:35.711Z,22.19
2023-06-10T15:49:04.129Z,21.79
2023-06-10T15:51:32.404Z,21.45
2023-06-10T15:54:00.404Z,21.98
2023-06-10T15:56:28.683Z,21.64
2023-06-10T15:58:56.771Z,20.95
2023-06-10T16:01:24.866Z,20.76
2023-06-10T16:03:53.067Z,21.01
2023-06-10T16:06:21.286Z,21.59
2023-06-10T16:08:49.458Z,21.73
2023-06-10T16:11:17.625Z,22.02
2023-06-10T16:13:45.656Z,22.26
2023-06-10T16:16:13.663Z,21.77
2023-06-10T16:18:41.800Z,22.11
2023-06-10T16:21:09.841Z,22.34
2023-06-10T16:23:40.359Z,22.25
2023-06-10T16:26:08.632Z,23.04
2023-06-10T16:28:36.616Z,24.82
2023-06-10T16:31:04.685Z,28.45
2023-06-10T16:33:33.344Z,29.00
2023-06-10T16:36:01.425Z,30.30
2023-06-10T16:38:29.557Z,31.24
2023-06-10T16:40:58.616Z,31.70
2023-06-10T16:43:27.937Z,31.99
2023-06-10T16:45:57.604Z,32.14
2023-06-10T16:48:26.215Z,32.36
2023-06-10T16:50:58.382Z,32.44
2023-06-10T16:53:26.363Z,32.71
2023-06-10T16:55:54.409Z,33.21
2023-06-10T16:58:23.567Z,33.43
2023-06-10T17:00:51.638Z,33.40
2023-06-10T17:03:19.718Z,33.53
2023-06-10T17:05:47.761Z,33.36
2023-06-10T17:08:15.872Z,33.25
2023-06-10T17:10:44.526Z,33.45
2023-06-10T17:13:12.656Z,32.91
2023-06-10T17:15:40.666Z,33.42
2023-06-10T17:18:08.985Z,34.03
2023-06-10T17:20:37.248Z,34.43
2023-06-10T17:23:05.926Z,34.43
2023-06-10T17:25:35.620Z,34.78
2023-06-10T17:28:04.079Z,35.13
2023-06-10T17:30:32.306Z,35.78
2023-06-10T17:33:00.311Z,36.01
2023-06-10T17:35:28.617Z,36.46
2023-06-10T17:37:56.726Z,36.62
2023-06-10T17:40:25.022Z,37.10
2023-06-10T17:42:53.160Z,37.23
2023-06-10T17:45:21.557Z,37.23
2023-06-10T17:47:49.645Z,37.27
2023-06-10T17:50:19.583Z,37.44
2023-06-10T17:52:48.677Z,37.85
2023-06-10T17:55:17.015Z,38.06
2023-06-10T17:57:45.053Z,38.33
2023-06-10T18:00:13.675Z,38.50
2023-06-10T18:02:41.941Z,38.66
2023-06-10T18:05:10.624Z,38.77
2023-06-10T18:07:39.125Z,39.34
2023-06-10T18:10:07.400Z,39.52
2023-06-10T18:12:35.871Z,39.70
2023-06-10T18:15:05.396Z,39.82
2023-06-10T18:17:34.594Z,39.92
2023-06-10T18:20:03.973Z,40.26
2023-06-10T18:22:32.161Z,40.62
2023-06-10T18:25:00.364Z,41.12
2023-06-10T18:27:28.497Z,41.37
2023-06-10T18:29:56.456Z,41.76
2023-06-10T18:32:24.555Z,41.85
2023-06-10T18:34:53.799Z,41.82
2023-06-10T18:37:21.790Z,42.24
2023-06-10T18:39:50.292Z,42.40
2023-06-10T18:42:18.295Z,42.67
2023-06-10T18:44:46.871Z,42.75
2023-06-10T18:47:15.006Z,43.02
2023-06-10T18:49:43.047Z,43.07
2023-06-10T18:52:11.146Z,43.54
2023-06-10T18:54:39.328Z,43.79
2023-06-10T18:57:08.210Z,43.80
2023-06-10T18:59:36.648Z,43.96
2023-06-10T19:02:04.805Z,44.27
2023-06-10T19:04:32.779Z,44.26
2023-06-10T19:07:00.710Z,45.17
2023-06-10T19:09:28.963Z,45.39
2023-06-10T19:11:57.025Z,46.05
2023-06-10T19:14:25.008Z,46.31
2023-06-10T19:16:53.100Z,46.65
2023-06-10T19:19:21.226Z,46.97
2023-06-10T19:21:49.236Z,47.35
2023-06-10T19:24:17.269Z,47.37
2023-06-10T19:26:45.512Z,47.75
2023-06-10T19:29:13.511Z,48.18
2023-06-10T19:31:41.554Z,47.94
2023-06-10T19:34:09.742Z,48.22
2023-06-10T19:36:37.838Z,48.96
2023-06-10T19:39:06.008Z,48.90
2023-06-10T19:41:34.122Z,49.44
2023-06-10T19:44:02.099Z,49.49
2023-06-10T19:46:31.335Z,50.23
2023-06-10T19:48:59.984Z,50.43
2023-06-10T19:51:27.992Z,50.31
2023-06-10T19:53:56.599Z,50.80
2023-06-10T19:56:24.544Z,50.95
2023-06-10T19:58:52.818Z,50.93
2023-06-10T20:01:20.922Z,51.35
2023-06-10T20:03:48.978Z,52.09
2023-06-10T20:06:17.244Z,52.18
2023-06-10T20:08:45.331Z,52.60
2023-06-10T20:11:13.377Z,52.93
2023-06-10T20:13:41.432Z,52.67
2023-06-10T20:16:09.586Z,53.20
2023-06-10T20:18:37.869Z,53.50
2023-06-10T20:21:06.021Z,53.86
2023-06-10T20:23:34.127Z,53.58
2023-06-10T20:26:02.123Z,54.35
2023-06-10T20:28:30.259Z,55.05
2023-06-10T20:30:58.211Z,55.19
2023-06-10T20:33:26.350Z,55.45
2023-06-10T20:35:54.306Z,55.47
2023-06-10T20:38:22.390Z,55.88
2023-06-10T20:40:50.774Z,55.69
2023-06-10T20:43:18.855Z,56.40
2023-06-10T20:45:47.069Z,56.45
2023-06-10T20:48:16.614Z,56.76
2023-06-10T20:50:44.792Z,56.87
2023-06-10T20:53:12.993Z,56.85
2023-06-10T20:55:41.092Z,56.80
2023-06-10T20:58:09.125Z,57.42
2023-06-10T21:00:37.274Z,57.34
2023-06-10T21:03:05.422Z,57.97
2023-06-10T21:05:33.617Z,57.04
2023-06-10T21:08:01.705Z,57.80
2023-06-10T21:10:29.900Z,57.60
2023-06-10T21:12:58.004Z,58.30
2023-06-10T21:15:26.134Z,57.98
2023-06-10T21:17:54.179Z,58.61
2023-06-10T21:20:22.346Z,58.30
2023-06-10T21:22:50.562Z,58.09
2023-06-10T21:25:18.627Z,58.12
2023-06-10T21:27:46.670Z,58.64
2023-06-10T21:30:14.962Z,58.36
2023-06-10T21:32:43.053Z,58.30
2023-06-10T21:35:11.440Z,58.12
2023-06-10T21:37:39.727Z,58.23
2023-06-10T21:40:08.437Z,58.43
2023-06-10T21:42:37.114Z,58.07
2023-06-10T21:45:05.799Z,58.23
2023-06-10T21:47:33.799Z,57.66
2023-06-10T21:50:01.803Z,57.92
2023-06-10T21:52:29.918Z,58.00
2023-06-10T21:54:58.190Z,57.93
2023-06-10T21:57:26.341Z,57.56
2023-06-10T21:59:54.438Z,57.75
2023-06-10T22:02:22.691Z,57.76
2023-06-10T22:04:51.234Z,57.54
2023-06-10T22:07:19.184Z,57.85
2023-06-10T22:09:49.376Z,57.98
2023-06-10T22:12:17.863Z,58.23
2023-06-10T22:14:45.966Z,58.22
2023-06-10T22:17:14.073Z,58.03
2023-06-10T22:19:42.722Z,58.28
2023-06-10T22:22:10.852Z,58.30
2023-06-10T22:24:38.933Z,58.37
2023-06-10T22:27:09.612Z,58.24
2023-06-10T22:29:38.277Z,57.97
2023-06-10T22:32:06.947Z,58.03
2023-06-10T22:34:35.169Z,58.07
2023-06-10T22:37:03.272Z,58.05
2023-06-10T22:39:31.246Z,58.14
2023-06-10T22:42:00.621Z,58.12
2023-06-10T22:44:28.801Z,58.01
2023-06-10T22:46:56.830Z,57.94
2023-06-10T22:49:24.893Z,58.09
2023-06-10T22:51:53.024Z,58.05
2023-06-10T22:54:21.324Z,58.08
2023-06-10T22:56:49.342Z,57.94
2023-06-10T22:59:17.317Z,57.94
2023-06-10T23:01:45.379Z,58.12
2023-06-10T23:04:13.786Z,57.79
2023-06-10T23:06:41.822Z,57.90
2023-06-10T23:09:10.364Z,57.58
2023-06-10T23:11:39.052Z,57.54
2023-06-10T23:14:07.102Z,57.57
2023-06-10T23:16:35.587Z,57.53
2023-06-10T23:19:03.883Z,57.26
2023-06-10T23:21:35.014Z,57.31
2023-06-10T23:24:03.345Z,57.23
2023-06-10T23:26:33.286Z,57.29
2023-06-10T23:29:01.257Z,57.33
2023-06-10T23:31:29.298Z,57.13
2023-06-10T23:33:59.206Z,57.37
2023-06-10T23:36:27.223Z,57.10
2023-06-10T23:38:55.352Z,57.06
2023-06-10T23:41:23.282Z,56.90
2023-06-10T23:43:51.816Z,56.91
2023-06-10T23:46:19.809Z,56.81
2023-06-10T23:48:47.873Z,56.60
2023-06-10T23:51:16.246Z,56.50
2023-06-10T23:53:44.245Z,56.60
2023-06-10T23:56:13.753Z,56.41
2023-06-10T23:58:41.738Z,56.44
